Search for airport 
image banner adimage banner adimage banner ad
image banner ad

68CA - Lake California Air Park

Located in Cottonwood, United States

ICAO - 68CA, IATA -

Data provided by Airmate  

General information

Coordinates: N40°21'40" W122°12'57"
Elevation is 615 feet MSL.
Magnetic variation is 17° East
View others Airports in California

Operational data

Special qualification required
Current time UTC:
Current local time:
Weather at : KRDD - Redding Muni ( 18 km )
METAR: KRDD 240753Z AUTO 01004KT 10SM CLR 24/11 A2990 RMK AO2 SLP119 T02390111 403560178
TAF: KRDD 240520Z 2406/2506 VRB05KT P6SM SKC FM242200 18008KT P6SM SCT150 FM250300 14006KT P6SM SCT150
View NOTAMs / SUP AIP / TFR affecting this airport [VIEW]
Communications frequencies: [VIEW]

Runways:

RWY identifierQFULength (ft)Width (ft)SurfaceLDA (ft)
14300075ASPH
32300075ASPH

Airport contact information

Address: Cottonwood United States

Satellite view of 68CA